Domov               UVHVVR             MKGP            O straneh              
ZDRAVSTVENO VARSTVO RASTLIN
  MREŽA AGROMET. POSTAJ
 ► PROGNOSTIČNA OBVESTILA
AGROMETEOROLOŠKI PODATKI -
ARSO
OBVLADOVANJE TVEGANJ ZARADI
NEUGODNIH VREMENSKIH RAZMER
  ► NARAVNE NESREČE
  ► SUŠA/MOČA
  ► NAMAKANJE
  ► ŽLED (gozdarstvo)
KARTOGRAFSKI PRIKAZI
SPLETNE POVEZAVE
PROJEKTI IN PUBLIKACIJE

AGROMETEOROLOŠKA MREŽA: VREMENSKE POSTAJE IN FENOLOŠKA OPAZOVANJA

Pregled podatkov za lokacijo Rodine pri Trebnjem APS, meteorološka postaja 49195

Pregled senzorjev na lokaciji

ID Ime Zadnja
vrednost
Datum in čas
zadnje
spremembe
(Lokalni čas)
Tip
senzorja
3769 Sončno sevanje (W/m2) 0.52 W/m2 15.12.2019 06:30 Pyranometer SP-Lite
3770 Omočenost lista (U) 1 U 15.12.2019 06:30 A730WET
3727 Padavine (mm) 0 mm 15.12.2019 06:30 Rain-O-Matic
3721 Relativna vlaga 2 m (% RH) 100 % RH 15.12.2019 06:30 50YA
3720 Temperatura 2 m (°C) -2.33 °C 15.12.2019 06:30 50YA
3726 Smer vetra (°) 118.65 ° 15.12.2019 06:30 566.2S-130
3725 Hitrost vetra (km/h) 0.04 km/h 15.12.2019 06:30 566.2S-176 (200km/h)

Pregled podatkov zadnjih 24 ur

Zap.
št.
Datum in čas
(Centralno
evropski čas)
Rodine pri Trebnjem APS
Sončno
sevanje
Omočenost
lista
Padavine Relativna
vlaga
2
m
Temperatura
2
m
Smer
vetra
Hitrost
vetra
1 15.12.2019 07:00
2 15.12.2019 06:30 0.5 1 0 100 -2.3 118.6 0
3 15.12.2019 06:00 0.5 1 0 100 -2.8 62.7 0
4 15.12.2019 05:30 0.5 1 0 100 -3.1 83.1 0
5 15.12.2019 05:00 0.5 1 0 100 -3 147.4 0.2
6 15.12.2019 04:30 0.5 1 0 100 -3.2 11.8 0
7 15.12.2019 04:00 0.5 1 0 100 -3.6 119.8 0.4
8 15.12.2019 03:30 0.5 1 0 100 -3.4 213.5 0
9 15.12.2019 03:00 0.5 1 0 100 -3.7 336 0
10 15.12.2019 02:30 0.5 1 0 100 -3.6 99 0
11 15.12.2019 02:00 0.5 1 0 100 -3.4 321.3 0
12 15.12.2019 01:30 0.5 1 0 100 -3.3 78.1 0
13 15.12.2019 01:00 0.5 1 0 100 -3 135 0
14 15.12.2019 00:30 0.6 0 0 100 -2.9 232.8 0.6
15 15.12.2019 00:00 0.6 0 0 100 -2.8 106.5 0
16 14.12.2019 23:30 0.5 0 0 100 -2.4 109.9 0
17 14.12.2019 23:00 0.5 0 0 100 -2.4 103.4 0
18 14.12.2019 22:30 0.5 0 0 100 -1.9 309.1 0
19 14.12.2019 22:00 0.5 0 0 100 -1.7 114.2 0
20 14.12.2019 21:30 0.5 0 0 100 -1.3 14.5 0
21 14.12.2019 21:00 0.5 1 0 100 -1.1 105.7 0
22 14.12.2019 20:30 0.5 0 0 100 -1.2 283.4 0
23 14.12.2019 20:00 0.5 0 0 100 -1.2 334.5 0
24 14.12.2019 19:30 0.5 0 0 100 -1 91.4 0
25 14.12.2019 19:00 0.6 0 0 100 -0.4 265.6 0
26 14.12.2019 18:30 0.5 7 0 100 -0.6 144.3 0
27 14.12.2019 18:00 0.5 9 0 100 0.4 28 0
28 14.12.2019 17:30 0.5 8 0 100 0.8 106.4 0
29 14.12.2019 17:00 0.8 4 0 100 1.6 144.4 0
30 14.12.2019 16:30 5.1 1 0 98.3 2.4 338.9 0
31 14.12.2019 16:00 18.9 0 0 92.9 4.1 183 0
32 14.12.2019 15:30 63.5 0 0 89.4 5.6 268.3 0
33 14.12.2019 15:00 92.2 0 0 89.9 5.7 265.3 4.5
34 14.12.2019 14:30 127.7 0 0 89.6 5.6 260.7 0.6
35 14.12.2019 14:00 133.7 0 0 90 5.4 235.5 0.6
36 14.12.2019 13:30 165.6 0 0 91.7 5 247.8 0
37 14.12.2019 13:00 212.6 0 0 92 5.1 248.8 0
38 14.12.2019 12:30 313.1 0 0 89.7 5.1 288.1 0
39 14.12.2019 12:00 321 0 0 87.4 5.4 261.4 0
40 14.12.2019 11:30 338 0 0 88.3 4.7 204.2 0
41 14.12.2019 11:00 464.1 0 2.6 94.3 4 170.4 0.5
42 14.12.2019 10:30 491.9 0 2.8 100 2.1 134.9 1.3
43 14.12.2019 10:00 362.4 0 1.8 100 1.3 286.8 0
44 14.12.2019 09:30 266.6 9 1.2 100 1.4 87.4 0
45 14.12.2019 09:00 185 10 0 100 0.8 27.6 0
46 14.12.2019 08:30 112.1 2 0 100 -0.2 5.6 0
47 14.12.2019 08:00 16.8 2 0 100 -0.6 336.9 0
48 14.12.2019 07:30 1 2 0 100 -0.3 336.9 0
© 2011 Ministrstvo za kmetijstvo, gozdarstvo in prehrano. Vse pravice pridržane.